Stations météo

réclame
Mon MeteoGroup
Buresjoen, Suède (2135): Température de l'air & dewpoint: 18.10.2018 07:00:00 - 24.10.2018 07:00:00 (CEST)Buresjoen, Suède (2135): Vitesse du vent & gusts: 18.10.2018 07:00:00 - 24.10.2018 07:00:00 (CEST)Buresjoen, Suède (2135): Direction du vent: 18.10.2018 07:00:00 - 24.10.2018 07:00:00 (CEST)Buresjoen, Suède (2135): Quantités de précipitations: 18.10.2018 07:00:00 - 24.10.2018 07:00:00 (CEST)
Date & Time tt [°C] td [°C] ff [km/h] ff [knt] fx [km/h] fx [knt] dd rr [mm]
24.10.2018 07:00:00 - - - - - - - -
24.10.2018 06:00:00 -6,9 -7,2 3 2 11 6 SSW 0,0
24.10.2018 05:00:00 -4,6 -5,1 6 3 10 6 WSW 0,0
24.10.2018 04:00:00 -4,5 -4,9 5 3 11 6 W 0,0
24.10.2018 03:00:00 -4,7 -5,1 7 4 14 7 WNW 0,0
24.10.2018 02:00:00 -5,5 -5,5 3 1 9 5 ESE 0,0
24.10.2018 01:00:00 -5,0 -5,1 2 1 13 7 SE 0,0
24.10.2018 00:00:00 -3,5 -4,5 5 3 13 7 W 0,0
23.10.2018 23:00:00 -3,3 -4,7 8 4 14 8 WNW 0,0
23.10.2018 22:00:00 -2,4 -4,0 6 3 16 8 WNW 0,0
23.10.2018 21:00:00 -1,6 -2,3 8 5 16 9 WNW 0,0
23.10.2018 20:00:00 -0,9 -1,0 9 5 20 11 WNW 0,0
23.10.2018 19:00:00 -0,4 -0,4 9 5 14 8 WNW 0,0
23.10.2018 18:00:00 -0,7 -0,7 5 3 9 5 W 0,0
23.10.2018 17:00:00 -0,7 -0,7 5 3 13 7 W 0,0
23.10.2018 16:00:00 -0,1 -0,9 6 4 12 6 WSW 0,0
23.10.2018 15:00:00 0,5 -1,6 6 3 11 6 SSW 0,0
23.10.2018 14:00:00 0,4 -1,5 0 0 15 8 N 0,0
23.10.2018 13:00:00 0,1 -1,7 5 3 11 6 S 0,0
23.10.2018 12:00:00 -1,6 -2,3 0 0 5 3 N 0,0
23.10.2018 11:00:00 -2,7 -3,1 0 0 9 5 N 0,0
23.10.2018 10:00:00 -4,1 -4,5 4 2 7 4 SE 0,0
23.10.2018 09:00:00 -5,2 -5,2 0 0 5 3 N 0,0
23.10.2018 08:00:00 -5,2 -5,2 0 0 6 3 N 0,0
23.10.2018 07:00:00 -4,5 -4,8 6 3 14 7 WSW 0,0
23.10.2018 06:00:00 -3,3 -3,4 0 0 10 5 N 0,0
23.10.2018 05:00:00 -2,8 -3,6 8 4 15 8 SW 0,0
23.10.2018 04:00:00 -3,3 -3,7 4 2 15 8 ESE 0,0
23.10.2018 03:00:00 -1,8 -2,9 9 5 16 9 W 0,0
23.10.2018 02:00:00 -1,6 -2,9 7 4 21 12 SW 0,0
23.10.2018 01:00:00 -1,2 -2,5 10 6 16 9 WSW 0,0
23.10.2018 00:00:00 -1,4 -2,4 6 3 12 6 SSW 0,0
22.10.2018 23:00:00 -0,5 -2,4 10 5 21 12 WSW 0,0
22.10.2018 22:00:00 -0,7 -3,1 9 5 23 12 WSW 0,0
22.10.2018 21:00:00 0,2 -2,3 14 8 26 14 WSW 0,0
22.10.2018 20:00:00 0,9 -2,0 11 6 32 17 WSW 0,0
22.10.2018 19:00:00 1,9 -3,2 18 10 33 18 W 0,0
22.10.2018 18:00:00 2,0 -2,0 16 9 31 17 W 0,0
22.10.2018 17:00:00 2,3 -1,7 16 8 33 18 W 0,0
22.10.2018 16:00:00 2,7 -2,4 15 8 24 13 W 0,0
22.10.2018 15:00:00 2,9 -2,2 11 6 34 19 W 0,0
22.10.2018 14:00:00 3,7 -1,9 17 9 39 21 W 0,0
22.10.2018 13:00:00 4,3 -1,7 13 7 35 19 W 0,0
22.10.2018 12:00:00 3,6 -2,0 10 5 41 22 WSW 0,0
22.10.2018 11:00:00 2,7 -1,8 22 12 42 23 WSW 0,0
22.10.2018 10:00:00 2,2 -0,9 16 9 30 16 SW 0,0
22.10.2018 09:00:00 0,4 -1,2 11 6 26 14 SSW 0,0
22.10.2018 08:00:00 0,3 -1,9 11 6 24 13 SSW 0,0
22.10.2018 07:00:00 0,4 -1,7 16 8 25 14 SSW 0,0
22.10.2018 06:00:00 -0,5 -2,4 7 4 14 8 SSW 0,0
22.10.2018 05:00:00 0,4 -1,8 10 5 16 9 SSW 0,0
22.10.2018 04:00:00 0,9 -1,7 6 4 17 9 WSW 0,0
22.10.2018 03:00:00 1,3 -0,5 0 0 8 5 N 0,0
22.10.2018 02:00:00 2,0 0,1 3 1 15 8 NNE 0,0
22.10.2018 01:00:00 2,3 0,4 9 5 18 10 WSW 0,0
22.10.2018 00:00:00 3,2 0,4 12 7 24 13 SW 0,0
21.10.2018 23:00:00 3,9 0,8 12 6 24 13 SW 0,0
21.10.2018 22:00:00 4,4 0,7 11 6 23 12 WSW 0,0
21.10.2018 21:00:00 5,0 1,5 11 6 21 12 WSW 0,0
21.10.2018 20:00:00 5,7 1,6 16 8 31 17 W 0,0
21.10.2018 19:00:00 5,5 3,0 11 6 33 18 WSW 0,0
21.10.2018 18:00:00 6,2 2,8 18 10 33 18 W 0,0
21.10.2018 17:00:00 6,8 2,5 14 8 29 16 SW 0,0
21.10.2018 16:00:00 7,1 2,6 16 9 29 16 SW 0,0
21.10.2018 15:00:00 7,3 2,4 15 8 29 16 SSW 0,0
21.10.2018 14:00:00 6,7 4,5 11 6 28 15 SSW 0,0
21.10.2018 13:00:00 6,3 4,9 14 7 33 18 S 0,0
21.10.2018 12:00:00 6,7 5,2 18 10 30 16 SSW 0,0
21.10.2018 11:00:00 5,7 4,8 18 10 39 21 SSW 0,0
21.10.2018 10:00:00 5,0 4,9 17 9 41 22 SSW 0,0
21.10.2018 09:00:00 3,8 3,8 16 8 31 17 SSW 0,0
21.10.2018 08:00:00 3,7 3,7 18 10 33 18 SSW 0,0
21.10.2018 07:00:00 3,2 3,2 18 10 42 23 SSW 0,0
21.10.2018 06:00:00 3,3 3,3 18 10 34 18 S 1,1
21.10.2018 05:00:00 3,3 3,0 10 6 27 14 SSW 0,0
21.10.2018 04:00:00 3,2 3,2 10 6 24 13 S 0,9
21.10.2018 03:00:00 3,1 2,8 10 5 24 13 S 0,4
21.10.2018 02:00:00 3,3 2,1 11 6 27 15 S 0,0
21.10.2018 01:00:00 3,0 2,1 8 5 26 14 S 0,0
21.10.2018 00:00:00 2,5 1,9 9 5 23 13 SSW 0,0
20.10.2018 23:00:00 1,1 1,1 6 3 10 5 SW 0,0
20.10.2018 22:00:00 0,5 0,5 3 1 9 5 SSW 0,0
20.10.2018 21:00:00 0,3 0,3 0 0 11 6 N 0,0
20.10.2018 20:00:00 1,6 1,5 8 5 12 6 SW 0,0
20.10.2018 19:00:00 2,7 2,1 7 4 13 7 SW 0,0
20.10.2018 18:00:00 3,3 2,7 6 3 13 7 SW 0,0
20.10.2018 17:00:00 4,1 3,4 6 3 10 6 SW 0,0
20.10.2018 16:00:00 5,1 3,3 5 3 11 6 SW 0,2
20.10.2018 15:00:00 5,7 5,0 5 3 10 6 WSW 0,0
20.10.2018 14:00:00 5,1 5,0 6 4 11 6 SW 0,0
20.10.2018 13:00:00 4,4 4,4 6 3 10 5 SW 0,0
20.10.2018 12:00:00 4,4 4,4 4 2 9 5 SSW 0,0
20.10.2018 11:00:00 2,6 2,6 3 2 6 3 NNW 0,0
20.10.2018 10:00:00 2,1 2,1 0 0 4 2 N 0,0
20.10.2018 09:00:00 1,3 1,3 0 0 5 3 N 0,0
20.10.2018 08:00:00 0,9 0,9 0 0 7 4 N 0,0
20.10.2018 07:00:00 1,0 1,0 0 0 7 4 N 0,0
20.10.2018 06:00:00 1,3 1,3 3 2 5 3 WNW 0,0
20.10.2018 05:00:00 2,0 2,0 0 0 9 5 N 0,0
20.10.2018 04:00:00 2,7 2,7 5 3 7 4 WSW 0,2
20.10.2018 03:00:00 2,5 2,5 0 0 8 4 N 0,0
20.10.2018 02:00:00 3,1 2,5 4 2 7 4 SW 0,0
20.10.2018 01:00:00 3,2 2,3 4 2 5 3 SW 0,0
20.10.2018 00:00:00 3,0 2,3 3 1 6 3 W 0,0
19.10.2018 23:00:00 2,9 2,2 0 0 10 5 N 0,0
19.10.2018 22:00:00 3,4 1,8 6 3 13 7 WSW 0,0
19.10.2018 21:00:00 3,3 1,0 4 2 11 6 WSW 0,0
19.10.2018 20:00:00 2,9 0,3 8 4 11 6 WSW 0,0
19.10.2018 19:00:00 2,5 -0,4 4 2 8 4 S 0,0
19.10.2018 18:00:00 3,6 -0,4 3 2 14 8 WSW 0,0
19.10.2018 17:00:00 5,0 -0,6 8 5 18 10 W 0,0
19.10.2018 16:00:00 6,0 -1,0 13 7 22 12 W 0,0
19.10.2018 15:00:00 6,9 0,8 13 7 23 12 W 0,0
19.10.2018 14:00:00 6,3 1,2 14 8 29 16 W 0,0
19.10.2018 13:00:00 6,3 1,8 11 6 24 13 W 0,0
19.10.2018 12:00:00 6,6 1,7 11 6 20 11 W 0,0
19.10.2018 11:00:00 6,3 2,0 13 7 24 13 W 0,0
19.10.2018 10:00:00 5,0 2,0 12 6 21 11 WSW 0,0
19.10.2018 09:00:00 4,0 1,7 8 5 29 16 WSW 0,0
19.10.2018 08:00:00 4,0 1,7 16 8 23 13 WSW 0,0
19.10.2018 07:00:00 4,2 1,7 13 7 19 11 SW 0,0
19.10.2018 06:00:00 4,0 1,5 8 5 18 10 WSW 0,0
19.10.2018 05:00:00 4,3 1,8 5 3 24 13 S 0,0
19.10.2018 04:00:00 4,7 1,5 14 7 30 16 WSW 0,0
19.10.2018 03:00:00 4,5 1,4 10 5 29 15 W 0,0
19.10.2018 02:00:00 4,5 1,2 12 6 41 22 W 0,0
19.10.2018 01:00:00 4,9 0,8 20 11 36 19 W 0,0
19.10.2018 00:00:00 5,3 0,7 22 12 47 26 W 0,0
18.10.2018 23:00:00 5,3 0,7 21 11 40 22 W 0,0
18.10.2018 22:00:00 5,6 0,4 19 10 48 26 W 0,0
18.10.2018 21:00:00 5,6 1,0 13 7 28 15 WSW 0,0
18.10.2018 20:00:00 5,4 1,9 15 8 32 18 WSW 0,0
18.10.2018 19:00:00 5,1 1,2 15 8 32 17 SW 0,0
18.10.2018 18:00:00 5,0 0,9 14 7 32 17 WSW 0,0
18.10.2018 17:00:00 6,0 1,1 13 7 29 16 WSW 0,0
18.10.2018 16:00:00 5,8 1,1 13 7 29 16 SW 0,0
18.10.2018 15:00:00 5,9 0,8 15 8 31 17 WSW 0,0
18.10.2018 14:00:00 6,2 0,1 17 9 35 19 SW 0,0
18.10.2018 13:00:00 6,6 1,3 19 10 33 18 SW 0,0
18.10.2018 12:00:00 5,7 1,8 18 10 29 16 SW 0,0
18.10.2018 11:00:00 4,9 1,9 13 7 21 11 SW 0,0
18.10.2018 10:00:00 3,0 1,2 12 7 22 12 SSW 0,0
18.10.2018 09:00:00 1,9 0,9 10 5 18 10 SW 0,0
18.10.2018 08:00:00 2,7 1,2 12 6 24 13 SW 0,0
18.10.2018 07:00:00 2,9 1,3 15 8 22 12 SSW 0,0

tt = Température de l'air
td = dewpoint
ff = Vitesse du vent
fx = gusts
dd = Direction du vent
rr = Quantités de précipitations

stations d'obs. à proximité